Bay City, Michigan
Current Conditions -  °F | °C
As of 5:53 AM on Friday 31 Oct 2014 (Local Time) from KMBS Reporting Station
Light Rain Light Rain  
Wind Chill: 39°   Ceiling: 2100
Heat Index: 43°   Visibility: 6mi
Dew Point: 40°   Wind: 6mph
Humidity: 89%   Direction: 310°NW
Pressure: 29.91"   Gusts: NA
Location:  43.6°N, 83.88°W
Report Text: KMBS 310953Z 31005KT 6SM -RA BR OVC021 06/04 A2991 RMK AO2 SLP131 P0004 T00610044
Loading
Personal Weather Stations






























Interactive Weather Map New forecast layout! Learn more

10-Day Weather Forecast

Advertisements
Track Severe Weather on mobile